CYBU weather

Nipawin Airport
Nipawin, Saskatchewan, Canada

Public forecast

Using degrees Celsius for public forecast. Weather courtesy of forecast.io.

METAR (pilot weather report)

Retrieved 2019/05/26 10:00 UTC (26 minutes ago):

CYBU 261000Z AUTO 22006KT 9SM OVC065 07/04 A3018 RMK SLP235

TAF (pilot weather forecast)

Closest forecast is Prince Albert Glass Field, 60.2 nm (111.5 km) W. Retrieved 2019/05/26 07:39 UTC (3 hours ago):

TAF CYPA 260638Z 2607/2619 VRB03KT P6SM BKN080 TEMPO 2608/2616 P6SM -SHRA BKN050 FM261600 18010KT P6SM FEW040 SCT100 RMK NXT FCST BY 261300Z